Time;durP1;ratioP1;P1;durP2;ratioP2;P2;SDS_P1;SDS_P2;PMS_P1;PMS_P2;Temp;Humidity;BMP_temperature;BMP_pressure;BME280_temperature;BME280_humidity;BME280_pressure;Samples;Min_cycle;Max_cycle;Signal;HPM_P1;HPM_P2
2022/06/27 00:01:29;;;;;;;;;;;;;;;-142.75;100.00;76542.72;4933625;29;19914;-65
2022/06/27 00:03:54;;;;;;;;;;;;;;;-142.75;100.00;76534.84;4933533;28;19938;-65
2022/06/27 00:06:19;;;;;;;;;;;;;;;-142.75;100.00;76538.78;4933558;29;19915;-65
2022/06/27 00:08:45;;;;;;;;;;;;;;;-142.75;100.00;76542.72;4933141;29;19918;-65
2022/06/27 00:11:10;;;;;;;;;;;;;;;-142.75;100.00;76542.72;4933448;28;19921;-65
2022/06/27 00:13:36;;;;;;;;;;;;;;;-142.75;100.00;76534.84;4933419;29;19919;-64
2022/06/27 00:16:01;;;;;;;;;;;;;;;-142.75;100.00;76532.88;4933380;29;19925;-65
2022/06/27 00:18:26;;;;;;;;;;;;;;;-142.75;100.00;76528.97;4932850;29;19919;-65
2022/06/27 00:20:53;;;;;;;;;;;;;;;-142.75;100.00;76532.88;4933331;29;20376;-64
2022/06/27 00:23:18;;;;;;;;;;;;;;;-142.75;100.00;76523.06;4933291;29;19960;-65
2022/06/27 00:25:43;;;;;;;;;;;;;;;-142.75;100.00;76530.91;4933225;29;19915;-65
2022/06/27 00:28:09;;;;;;;;;;;;;;;-142.75;100.00;76523.06;4932953;29;19915;-65
2022/06/27 00:30:34;;;;;;;;;;;;;;;-142.75;100.00;76519.13;4932885;29;19919;-65
2022/06/27 00:32:59;;;;;;;;;;;;;;;-142.75;100.00;76519.13;4933003;29;19961;-65
2022/06/27 00:35:24;;;;;;;;;;;;;;;-142.75;100.00;76515.19;4932941;29;19918;-65
2022/06/27 00:37:49;;;;;;;;;;;;;;;-142.75;100.00;76513.22;4932851;29;20388;-65
2022/06/27 00:40:15;;;;;;;;;;;;;;;-142.75;100.00;76527.00;4932828;29;19918;-65
2022/06/27 00:42:40;;;;;;;;;;;;;;;-142.75;100.00;76534.84;4932976;29;20347;-65
2022/06/27 00:45:06;;;;;;;;;;;;;;;-142.75;100.00;76534.84;4931997;29;19962;-66
2022/06/27 00:47:31;;;;;;;;;;;;;;;-142.75;100.00;76534.84;4932745;29;20005;-65
2022/06/27 00:49:56;;;;;;;;;;;;;;;-142.75;100.00;76536.84;4932489;29;19914;-65
2022/06/27 00:52:21;;;;;;;;;;;;;;;-142.75;100.00;76538.78;4932766;29;19914;-65
2022/06/27 00:54:47;;;;;;;;;;;;;;;-142.75;100.00;76546.66;4933025;29;19968;-65
2022/06/27 00:57:14;;;;;;;;;;;;;;;-142.75;100.00;76540.75;4932759;29;19973;-65
2022/06/27 00:59:39;;;;;;;;;;;;;;;-142.75;100.00;76546.66;4932398;29;19914;-65
2022/06/27 01:02:05;;;;;;;;;;;;;;;-142.75;100.00;76538.78;4932712;29;19922;-65
2022/06/27 01:04:31;;;;;;;;;;;;;;;-142.75;100.00;76538.78;4932705;29;19915;-65
2022/06/27 01:06:57;;;;;;;;;;;;;;;-142.75;100.00;76544.69;4932841;29;19915;-65
2022/06/27 01:09:23;;;;;;;;;;;;;;;-142.75;100.00;76542.72;4932362;29;19914;-65
2022/06/27 01:11:48;;;;;;;;;;;;;;;-142.75;100.00;76540.75;4932771;29;20024;-65
2022/06/27 01:14:14;;;;;;;;;;;;;;;-142.75;100.00;76534.84;4931506;29;19922;-65
2022/06/27 01:16:39;;;;;;;;;;;;;;;-142.75;100.00;76530.91;4932597;29;19926;-65
2022/06/27 01:19:08;;;;;;;;;;;;;;;-142.75;100.00;76525.03;4932172;29;19946;-65
2022/06/27 01:21:38;;;;;;;;;;;;;;;-142.75;100.00;76530.91;4931724;28;19915;-65
2022/06/27 01:24:03;;;;;;;;;;;;;;;-142.75;100.00;76538.78;4932506;29;20376;-66
2022/06/27 01:26:28;;;;;;;;;;;;;;;-142.75;100.00;76542.72;4932427;29;19961;-65
2022/06/27 01:28:53;;;;;;;;;;;;;;;-142.75;100.00;76550.59;4931977;29;20316;-65
2022/06/27 01:31:19;;;;;;;;;;;;;;;-142.75;100.00;76556.50;5039775;22;19925;-69
2022/06/27 01:33:44;;;;;;;;;;;;;;;-142.75;100.00;76558.47;5032550;28;19944;-70
2022/06/27 01:38:54;;;;;;;;;;;;;;;-142.75;100.00;76562.41;5051817;28;19931;-69
2022/06/27 01:41:20;;;;;;;;;;;;;;;-142.75;100.00;76566.34;5051949;28;19919;-69
2022/06/27 01:43:46;;;;;;;;;;;;;;;-142.75;100.00;76562.41;5051976;28;20345;-69
2022/06/27 01:46:12;;;;;;;;;;;;;;;-142.75;100.00;76574.22;5051847;28;19920;-70
2022/06/27 01:48:38;;;;;;;;;;;;;;;-142.75;100.00;76578.16;5033826;28;19921;-70
2022/06/27 01:51:03;;;;;;;;;;;;;;;-142.75;100.00;76582.09;5033977;28;19959;-70
2022/06/27 01:53:29;;;;;;;;;;;;;;;-142.75;100.00;76586.03;5051930;28;19979;-69
2022/06/27 01:55:54;;;;;;;;;;;;;;;-142.75;100.00;76578.16;5052925;28;19967;-69
2022/06/27 01:58:19;;;;;;;;;;;;;;;-142.75;100.00;76578.16;5055483;28;20321;-69
2022/06/27 02:00:45;;;;;;;;;;;;;;;-142.75;100.00;76574.22;5055601;28;19919;-69
2022/06/27 02:03:10;;;;;;;;;;;;;;;-142.75;100.00;76564.38;5055820;28;19920;-69
2022/06/27 02:05:35;;;;;;;;;;;;;;;-142.75;100.00;76554.53;5037838;28;20050;-69
2022/06/27 02:08:02;;;;;;;;;;;;;;;-142.75;100.00;76548.63;5037487;28;19994;-69
2022/06/27 02:10:27;;;;;;;;;;;;;;;-142.75;100.00;76550.59;5055494;28;19919;-69
2022/06/27 02:12:53;;;;;;;;;;;;;;;-142.75;100.00;76550.59;5037689;28;19913;-69
2022/06/27 02:15:18;;;;;;;;;;;;;;;-142.75;100.00;76548.63;5055447;28;19940;-69
2022/06/27 02:17:43;;;;;;;;;;;;;;;-142.75;100.00;76554.53;5055292;28;19939;-69
2022/06/27 02:20:08;;;;;;;;;;;;;;;-142.75;100.00;76564.38;5037358;28;19970;-69
2022/06/27 02:22:34;;;;;;;;;;;;;;;-142.75;100.00;76564.38;5055419;28;19912;-69
2022/06/27 02:24:59;;;;;;;;;;;;;;;-142.75;100.00;76568.31;5055369;28;20373;-69
2022/06/27 02:27:24;;;;;;;;;;;;;;;-142.75;100.00;76566.34;5055316;28;19913;-69
2022/06/27 02:29:49;;;;;;;;;;;;;;;-142.75;100.00;76566.34;5036795;28;20363;-69
2022/06/27 02:32:15;;;;;;;;;;;;;;;-142.75;100.00;76562.41;5037391;28;19920;-69
2022/06/27 02:34:41;;;;;;;;;;;;;;;-142.75;100.00;76562.41;5055160;28;20340;-70
2022/06/27 02:37:07;;;;;;;;;;;;;;;-142.75;100.00;76562.41;5055186;28;20317;-69
2022/06/27 02:39:35;;;;;;;;;;;;;;;-142.75;100.00;76562.41;5054731;28;19919;-69
2022/06/27 02:42:01;;;;;;;;;;;;;;;-142.75;100.00;76556.50;5055078;28;19912;-69
2022/06/27 02:44:26;;;;;;;;;;;;;;;-142.75;100.00;76566.34;5036938;28;19924;-69
2022/06/27 02:46:52;;;;;;;;;;;;;;;-142.75;100.00;76570.28;5054991;28;20263;-69
2022/06/27 02:49:17;;;;;;;;;;;;;;;-142.75;100.00;76566.34;5054549;28;19913;-69
2022/06/27 02:51:46;;;;;;;;;;;;;;;-142.75;100.00;76566.34;5054894;28;19912;-69
2022/06/27 02:54:16;;;;;;;;;;;;;;;-142.75;100.00;76558.47;5054826;28;19913;-69
2022/06/27 02:57:01;;;;;;;;;;;;;;;-142.75;100.00;76554.53;5054803;28;20366;-69
2022/06/27 02:59:30;;;;;;;;;;;;;;;-142.75;100.00;76554.53;5036392;28;20322;-70
2022/06/27 03:01:56;;;;;;;;;;;;;;;-142.75;100.00;76556.50;5036737;28;20005;-69
2022/06/27 03:04:21;;;;;;;;;;;;;;;-142.75;100.00;76544.69;5036727;28;20015;-69
2022/06/27 03:06:49;;;;;;;;;;;;;;;-142.75;100.00;76544.69;5054466;28;19975;-71
2022/06/27 03:09:14;;;;;;;;;;;;;;;-142.75;100.00;76546.66;5053564;28;20003;-69
2022/06/27 03:11:40;;;;;;;;;;;;;;;-142.75;100.00;76552.56;5054326;28;20015;-69
2022/06/27 03:14:06;;;;;;;;;;;;;;;-142.75;100.00;76550.59;5054390;28;19913;-71
2022/06/27 03:16:32;;;;;;;;;;;;;;;-142.75;100.00;76560.44;5036449;28;20350;-69
2022/06/27 03:18:57;;;;;;;;;;;;;;;-142.75;100.00;76566.34;5054041;28;19944;-69
2022/06/27 03:21:22;;;;;;;;;;;;;;;-142.75;100.00;76564.38;5054235;28;19912;-69
2022/06/27 03:23:48;;;;;;;;;;;;;;;-142.75;100.00;76574.22;5036377;28;20379;-70
2022/06/27 03:26:14;;;;;;;;;;;;;;;-142.75;100.00;76570.28;5036248;28;20390;-69
2022/06/27 03:28:39;;;;;;;;;;;;;;;-142.75;100.00;76568.31;5053895;28;19913;-69
2022/06/27 03:31:04;;;;;;;;;;;;;;;-142.75;100.00;76562.41;5036029;28;19916;-70
2022/06/27 03:33:29;;;;;;;;;;;;;;;-142.75;100.00;76554.53;5054075;28;20003;-69
2022/06/27 03:35:55;;;;;;;;;;;;;;;-142.75;100.00;76568.31;5054012;28;19913;-70
2022/06/27 03:38:20;;;;;;;;;;;;;;;-142.75;100.00;76572.25;5053686;28;19959;-69
2022/06/27 03:40:45;;;;;;;;;;;;;;;-142.75;100.00;76574.22;5053831;28;19962;-70
2022/06/27 03:43:10;;;;;;;;;;;;;;;-142.75;100.00;76570.28;5053900;28;19913;-69
2022/06/27 03:45:36;;;;;;;;;;;;;;;-142.75;100.00;76570.28;5053861;28;19917;-70
2022/06/27 03:48:02;;;;;;;;;;;;;;;-142.75;100.00;76560.44;5053532;28;19912;-69
2022/06/27 03:50:27;;;;;;;;;;;;;;;-142.75;100.00;76554.53;5053744;28;19920;-70
2022/06/27 03:52:53;;;;;;;;;;;;;;;-142.75;100.00;76554.53;5035957;28;19912;-69
2022/06/27 03:55:18;;;;;;;;;;;;;;;-142.75;100.00;76546.66;5053646;28;19999;-70
2022/06/27 03:57:48;;;;;;;;;;;;;;;-142.75;100.00;76552.56;5035507;28;19970;-68
2022/06/27 04:00:13;;;;;;;;;;;;;;;-142.75;100.00;76554.53;5035549;28;20008;-69
2022/06/27 04:02:38;;;;;;;;;;;;;;;-142.75;100.00;76554.53;5053489;28;20437;-70
2022/06/27 04:05:04;;;;;;;;;;;;;;;-142.75;100.00;76572.25;5053484;28;19919;-69
2022/06/27 04:07:29;;;;;;;;;;;;;;;-142.75;100.00;76574.22;5053330;28;19919;-69
2022/06/27 04:09:55;;;;;;;;;;;;;;;-142.75;100.00;76566.34;5035039;28;20337;-69
2022/06/27 04:12:20;;;;;;;;;;;;;;;-142.75;100.00;76558.47;5035435;28;19916;-69
2022/06/27 04:14:46;;;;;;;;;;;;;;;-142.75;100.00;76554.53;5053279;28;19917;-71
2022/06/27 04:17:11;;;;;;;;;;;;;;;-142.75;100.00;76550.59;5053241;28;19916;-69
2022/06/27 04:19:36;;;;;;;;;;;;;;;-142.75;100.00;76546.66;5051814;28;19917;-69
2022/06/27 04:22:01;;;;;;;;;;;;;;;-142.75;100.00;76554.53;5053131;28;19913;-69
2022/06/27 04:24:26;;;;;;;;;;;;;;;-142.75;100.00;76546.66;5052953;28;19967;-68
2022/06/27 04:26:52;;;;;;;;;;;;;;;-142.75;100.00;76534.84;5052975;28;19920;-69
2022/06/27 04:29:17;;;;;;;;;;;;;;;-142.75;100.00;76517.16;5052611;28;19920;-69
2022/06/27 04:31:42;;;;;;;;;;;;;;;-142.75;100.00;76509.28;5052895;28;20013;-69
2022/06/27 04:34:07;;;;;;;;;;;;;;;-142.75;100.00;76499.44;5035124;28;19913;-68
2022/06/27 04:36:33;;;;;;;;;;;;;;;-142.75;100.00;76503.38;5034915;28;20437;-69
2022/06/27 04:38:58;;;;;;;;;;;;;;;-142.75;100.00;76509.28;5052512;28;20267;-70
2022/06/27 04:41:25;;;;;;;;;;;;;;;-142.75;100.00;76507.31;5052607;28;19913;-71
2022/06/27 04:43:52;;;;;;;;;;;;;;;-142.75;100.00;76509.28;5034831;28;19912;-70
2022/06/27 04:46:18;;;;;;;;;;;;;;;-142.75;100.00;76523.06;5052688;28;20000;-70
2022/06/27 04:48:43;;;;;;;;;;;;;;;-142.75;100.00;76527.00;5052343;28;19948;-70
2022/06/27 04:51:09;;;;;;;;;;;;;;;-142.75;100.00;76523.06;5052655;28;19913;-70
2022/06/27 04:53:35;;;;;;;;;;;;;;;-142.75;100.00;76528.97;5051500;28;19912;-69
2022/06/27 04:56:00;;;;;;;;;;;;;;;-142.75;100.00;76534.84;5033826;28;19920;-69
2022/06/27 04:58:25;;;;;;;;;;;;;;;-142.75;100.00;76544.69;5051034;28;19916;-69
2022/06/27 05:00:50;;;;;;;;;;;;;;;-142.75;100.00;76544.69;5033593;28;19962;-69
2022/06/27 05:03:16;;;;;;;;;;;;;;;-142.75;100.00;76546.66;5051640;28;19920;-70
2022/06/27 05:05:41;;;;;;;;;;;;;;;-142.75;100.00;76550.59;5051418;28;19919;-69
2022/06/27 05:08:06;;;;;;;;;;;;;;;-142.75;100.00;76554.53;5051002;28;19921;-69
2022/06/27 05:10:31;;;;;;;;;;;;;;;-142.75;100.00;76546.66;5033451;28;19982;-69
2022/06/27 05:12:57;;;;;;;;;;;;;;;-142.75;100.00;76550.59;5051376;28;19917;-70
2022/06/27 05:15:22;;;;;;;;;;;;;;;-142.75;100.00;76544.69;5051256;28;19913;-69
2022/06/27 05:17:47;;;;;;;;;;;;;;;-142.75;100.00;76534.84;5050975;28;20287;-70
2022/06/27 05:20:12;;;;;;;;;;;;;;;-142.75;100.00;76525.03;5051066;28;19919;-69
2022/06/27 05:22:38;;;;;;;;;;;;;;;-142.75;100.00;76534.84;5051133;28;19917;-69
2022/06/27 05:25:04;;;;;;;;;;;;;;;-142.75;100.00;76546.66;5051059;28;19922;-70
2022/06/27 05:27:29;;;;;;;;;;;;;;;-142.75;100.00;76548.63;5051075;28;19967;-70
2022/06/27 05:29:54;;;;;;;;;;;;;;;-142.75;100.00;76546.66;5032844;28;20386;-71
2022/06/27 05:32:19;;;;;;;;;;;;;;;-142.75;100.00;76548.63;5033975;28;19919;-73
2022/06/27 05:34:45;;;;;;;;;;;;;;;-142.75;100.00;76550.59;5052089;28;19913;-71
2022/06/27 05:37:10;;;;;;;;;;;;;;;-142.75;100.00;76550.59;5034116;28;19939;-73
2022/06/27 05:39:35;;;;;;;;;;;;;;;-142.75;100.00;76546.66;5051519;28;19959;-71
2022/06/27 05:42:03;;;;;;;;;;;;;;;-142.75;100.00;76548.63;5052027;28;20424;-70
2022/06/27 05:44:28;;;;;;;;;;;;;;;-142.75;100.00;76546.66;5034060;28;19913;-70
2022/06/27 05:46:55;;;;;;;;;;;;;;;-142.75;100.00;76552.56;5051930;28;19979;-70
2022/06/27 05:49:21;;;;;;;;;;;;;;;-142.75;100.00;76546.66;5051592;28;19913;-67
2022/06/27 05:51:46;;;;;;;;;;;;;;;-142.75;100.00;76546.66;5051630;28;19919;-69
2022/06/27 05:54:12;;;;;;;;;;;;;;;-142.75;100.00;76540.75;5050939;28;19924;-69
2022/06/27 05:56:39;;;;;;;;;;;;;;;-142.75;100.00;76536.84;5050864;28;19924;-69
2022/06/27 05:59:05;;;;;;;;;;;;;;;-142.75;100.00;76562.41;5049741;28;19912;-69
2022/06/27 06:01:31;;;;;;;;;;;;;;;-142.75;100.00;76556.50;5032996;28;19994;-69
2022/06/27 06:03:57;;;;;;;;;;;;;;;-142.75;100.00;76554.53;5051798;28;19924;-69
2022/06/27 06:06:24;;;;;;;;;;;;;;;-142.75;100.00;76554.53;5033902;28;19913;-69
2022/06/27 06:08:50;;;;;;;;;;;;;;;-142.75;100.00;76552.56;5051189;28;19959;-70
2022/06/27 06:11:15;;;;;;;;;;;;;;;-142.75;100.00;76552.56;5051598;28;19912;-69
2022/06/27 06:13:41;;;;;;;;;;;;;;;-142.75;100.00;76548.63;5051625;28;19967;-70
2022/06/27 06:16:06;;;;;;;;;;;;;;;-142.75;100.00;76550.59;5051503;28;20393;-70
2022/06/27 06:18:33;;;;;;;;;;;;;;;-142.75;100.00;76550.59;5033354;28;20018;-69
2022/06/27 06:20:58;;;;;;;;;;;;;;;-142.75;100.00;76550.59;5051539;28;19912;-69
2022/06/27 06:23:24;;;;;;;;;;;;;;;-142.75;100.00;76552.56;5033681;28;20461;-69
2022/06/27 06:25:49;;;;;;;;;;;;;;;-142.75;100.00;76558.47;5051569;28;20007;-69
2022/06/27 06:28:14;;;;;;;;;;;;;;;-142.75;100.00;76558.47;5033343;28;19967;-69
2022/06/27 06:30:39;;;;;;;;;;;;;;;-142.75;100.00;76564.38;5051547;28;19948;-69
2022/06/27 06:33:05;;;;;;;;;;;;;;;-142.75;100.00;76566.34;5033701;28;19912;-69
2022/06/27 06:35:32;;;;;;;;;;;;;;;-142.75;100.00;76570.28;5051413;28;19913;-69
2022/06/27 06:37:58;;;;;;;;;;;;;;;-142.75;100.00;76580.13;5051087;28;19932;-69
2022/06/27 06:40:23;;;;;;;;;;;;;;;-142.75;100.00;76570.28;5051399;28;19966;-69
2022/06/27 06:42:48;;;;;;;;;;;;;;;-142.75;100.00;76560.44;5052171;28;19913;-70
2022/06/27 06:45:14;;;;;;;;;;;;;;;-142.75;100.00;76560.44;5036935;28;19917;-70
2022/06/27 06:47:44;;;;;;;;;;;;;;;-142.75;100.00;76546.66;5054965;28;19920;-69
2022/06/27 06:50:10;;;;;;;;;;;;;;;-142.75;100.00;76527.00;5054709;28;19913;-69
2022/06/27 06:52:37;;;;;;;;;;;;;;;-142.75;100.00;76505.34;5054815;28;19917;-69
2022/06/27 06:55:03;;;;;;;;;;;;;;;-142.75;100.00;76485.66;5054814;28;20343;-71
2022/06/27 06:57:28;;;;;;;;;;;;;;;-142.75;100.00;76483.69;5054810;28;19967;-69
2022/06/27 06:59:53;;;;;;;;;;;;;;;-142.75;100.00;76464.00;5054364;28;19913;-69
2022/06/27 07:02:19;;;;;;;;;;;;;;;-142.75;100.00;76464.00;5054514;28;20011;-69
2022/06/27 07:04:47;;;;;;;;;;;;;;;-142.75;100.00;76464.00;5054470;28;19919;-69
2022/06/27 07:07:13;;;;;;;;;;;;;;;-142.75;100.00;76444.31;5054418;28;19948;-70
2022/06/27 07:09:39;;;;;;;;;;;;;;;-142.75;100.00;76442.34;5036594;28;20309;-69
2022/06/27 07:12:05;;;;;;;;;;;;;;;-142.75;100.00;76430.53;5054542;28;19919;-70
2022/06/27 07:14:31;;;;;;;;;;;;;;;-142.75;100.00;76440.38;5036528;28;19913;-69
2022/06/27 07:16:56;;;;;;;;;;;;;;;-142.75;100.00;76444.31;5054383;28;20290;-69
2022/06/27 07:19:22;;;;;;;;;;;;;;;-142.75;100.00;76436.44;5053946;28;20382;-68
2022/06/27 07:21:47;;;;;;;;;;;;;;;-142.75;100.00;76452.19;5054330;28;19912;-69
2022/06/27 07:24:12;;;;;;;;;;;;;;;-142.75;100.00;76454.16;5054263;28;19947;-69
2022/06/27 07:26:37;;;;;;;;;;;;;;;-142.75;100.00;76448.25;5054282;28;19920;-69
2022/06/27 07:29:05;;;;;;;;;;;;;;;-142.75;100.00;76456.13;5053884;28;19913;-69
2022/06/27 07:31:30;;;;;;;;;;;;;;;-142.75;100.00;76452.19;5007911;22;19927;-65
2022/06/27 07:33:56;;;;;;;;;;;;;;;-142.75;100.00;76438.41;4951398;29;20024;-65
2022/06/27 07:36:25;;;;;;;;;;;;;;;-142.75;100.00;76440.38;4951784;28;20013;-65
2022/06/27 07:38:52;;;;;;;;;;;;;;;-142.75;100.00;76446.28;4952521;28;20374;-64
2022/06/27 07:41:20;;;;;;;;;;;;;;;-142.75;100.00;76460.06;4952905;28;20287;-65
2022/06/27 07:43:46;;;;;;;;;;;;;;;-142.75;100.00;76469.91;4952989;28;19922;-65
2022/06/27 07:46:12;;;;;;;;;;;;;;;-142.75;100.00;76469.91;4952895;28;19914;-65
2022/06/27 07:48:38;;;;;;;;;;;;;;;-142.75;100.00;76467.94;4951326;28;19918;-65
2022/06/27 07:51:03;;;;;;;;;;;;;;;-142.75;100.00;76469.91;4953019;28;20425;-65
2022/06/27 07:53:29;;;;;;;;;;;;;;;-142.75;100.00;76475.81;4952361;29;19915;-65
2022/06/27 07:55:56;;;;;;;;;;;;;;;-142.75;100.00;76477.78;4952911;29;19914;-65
2022/06/27 07:58:30;;;;;;;;;;;;;;;-142.75;100.00;76495.50;4952269;28;19922;-65
2022/06/27 08:00:56;;;;;;;;;;;;;;;-142.75;100.00;76489.59;4952728;28;19914;-65
2022/06/27 08:03:36;;;;;;;;;;;;;;;-142.75;100.00;76475.81;4952757;29;20404;-65
2022/06/27 08:06:02;;;;;;;;;;;;;;;-142.75;100.00;76475.81;4952792;28;19961;-65
2022/06/27 08:08:32;;;;;;;;;;;;;;;-142.75;100.00;76481.72;4952357;28;19915;-65
2022/06/27 08:10:57;;;;;;;;;;;;;;;-142.75;100.00;76479.75;4952526;28;19915;-65
2022/06/27 08:13:22;;;;;;;;;;;;;;;-142.75;100.00;76475.81;4952431;29;19914;-65
2022/06/27 08:15:48;;;;;;;;;;;;;;;-142.75;100.00;76469.91;4952575;28;20380;-65
2022/06/27 08:18:17;;;;;;;;;;;;;;;-142.75;100.00;76462.03;4952224;28;19925;-65
2022/06/27 08:20:45;;;;;;;;;;;;;;;-142.75;100.00;76464.00;4952402;28;19915;-65
2022/06/27 08:23:11;;;;;;;;;;;;;;;-142.75;100.00;76460.06;4952438;28;19919;-65
2022/06/27 08:25:37;;;;;;;;;;;;;;;-142.75;100.00;76446.28;4952404;28;19915;-65
2022/06/27 08:28:03;;;;;;;;;;;;;;;-142.75;100.00;76440.38;4952014;28;20399;-65
2022/06/27 08:30:28;;;;;;;;;;;;;;;-142.75;100.00;76432.50;4952112;29;19914;-65
2022/06/27 08:32:55;;;;;;;;;;;;;;;-142.75;100.00;76414.78;4952354;28;20419;-65
2022/06/27 08:35:20;;;;;;;;;;;;;;;-142.75;100.00;76412.81;4952181;28;19922;-65
2022/06/27 08:37:46;;;;;;;;;;;;;;;-142.75;100.00;76412.81;4950352;29;19922;-66
2022/06/27 08:40:12;;;;;;;;;;;;;;;-142.75;100.00;76422.66;4951984;28;19972;-66
2022/06/27 08:42:38;;;;;;;;;;;;;;;-142.75;100.00;76420.69;4952429;28;19957;-66
2022/06/27 08:45:07;;;;;;;;;;;;;;;-142.75;100.00;76408.88;4951505;28;19961;-66
2022/06/27 08:47:32;;;;;;;;;;;;;;;-142.75;100.00;76418.72;4952020;28;19914;-66
2022/06/27 08:49:57;;;;;;;;;;;;;;;-142.75;100.00;76420.69;4951460;28;19947;-65
2022/06/27 08:52:22;;;;;;;;;;;;;;;-142.75;100.00;76424.63;4951922;29;19915;-65
2022/06/27 08:54:50;;;;;;;;;;;;;;;-142.75;100.00;76424.63;4951968;28;19915;-66
2022/06/27 08:57:15;;;;;;;;;;;;;;;-142.75;100.00;76426.59;4951899;28;19966;-66
2022/06/27 08:59:40;;;;;;;;;;;;;;;-142.75;100.00;76420.69;4951554;29;19957;-66
2022/06/27 09:02:06;;;;;;;;;;;;;;;-142.75;100.00;76420.69;4951686;29;19961;-66
2022/06/27 09:04:52;;;;;;;;;;;;;;;-142.75;100.00;76428.56;4951787;28;19921;-66
2022/06/27 09:07:18;;;;;;;;;;;;;;;-142.75;100.00;76426.59;4951383;28;20008;-66
2022/06/27 09:09:43;;;;;;;;;;;;;;;-142.75;100.00;76430.53;4951465;28;20409;-65
2022/06/27 09:12:09;;;;;;;;;;;;;;;-142.75;100.00;76432.50;4951574;29;20379;-66
2022/06/27 09:14:37;;;;;;;;;;;;;;;-142.75;100.00;76432.50;4951489;28;19914;-66
2022/06/27 09:17:06;;;;;;;;;;;;;;;-142.75;100.00;76430.53;4951530;28;19919;-66
2022/06/27 09:20:03;;;;;;;;;;;;;;;-142.75;100.00;76428.56;4951301;28;20044;-66
2022/06/27 09:22:29;;;;;;;;;;;;;;;-142.75;100.00;76424.63;4929523;29;19946;-66
2022/06/27 09:25:04;;;;;;;;;;;;;;;-142.75;100.00;76422.66;4951512;29;19915;-65
2022/06/27 09:27:35;;;;;;;;;;;;;;;-142.75;100.00;76416.75;4951429;28;19929;-65
2022/06/27 09:30:21;;;;;;;;;;;;;;;-142.75;100.00;76408.88;4951281;29;20005;-66
2022/06/27 09:32:50;;;;;;;;;;;;;;;-142.75;100.00;76397.06;4951459;28;19972;-65
2022/06/27 09:35:23;;;;;;;;;;;;;;;-142.75;100.00;76397.06;4951458;28;19915;-66
2022/06/27 09:37:52;;;;;;;;;;;;;;;-142.75;100.00;76408.88;4951158;28;20370;-65
2022/06/27 09:40:18;;;;;;;;;;;;;;;-142.75;100.00;76408.88;4951242;28;19921;-65
2022/06/27 09:42:44;;;;;;;;;;;;;;;-142.75;100.00;76406.91;4951532;28;20009;-66
2022/06/27 09:45:10;;;;;;;;;;;;;;;-142.75;100.00;76410.84;4951270;29;19914;-66
2022/06/27 09:47:36;;;;;;;;;;;;;;;-142.75;100.00;76397.06;4951214;28;19960;-66
2022/06/27 09:50:03;;;;;;;;;;;;;;;-142.75;100.00;76389.19;4950849;28;19950;-66
2022/06/27 09:52:28;;;;;;;;;;;;;;;-142.75;100.00;76385.25;4951141;28;19957;-65
2022/06/27 09:54:54;;;;;;;;;;;;;;;-142.75;100.00;76387.22;4949834;29;20338;-65
2022/06/27 09:57:21;;;;;;;;;;;;;;;-142.75;100.00;76383.28;4951040;28;19923;-65
2022/06/27 09:59:47;;;;;;;;;;;;;;;-142.75;100.00;76385.25;4950778;28;19950;-65
2022/06/27 10:02:16;;;;;;;;;;;;;;;-142.75;100.00;76389.19;4951089;28;19921;-66
2022/06/27 10:04:43;;;;;;;;;;;;;;;-142.75;100.00;76389.19;4950975;28;19962;-66
2022/06/27 10:07:08;;;;;;;;;;;;;;;-142.75;100.00;76393.13;4951080;28;19960;-66
2022/06/27 10:09:36;;;;;;;;;;;;;;;-142.75;100.00;76393.13;4950794;28;20335;-66
2022/06/27 10:12:20;;;;;;;;;;;;;;;-142.75;100.00;76385.25;4950833;28;20391;-66
2022/06/27 10:14:46;;;;;;;;;;;;;;;-142.75;100.00;76389.19;4950894;28;20380;-65
2022/06/27 10:17:14;;;;;;;;;;;;;;;-142.75;100.00;76389.19;4952042;28;19923;-66
2022/06/27 10:19:59;;;;;;;;;;;;;;;-142.75;100.00;76393.13;4953969;28;19915;-65
2022/06/27 10:22:24;;;;;;;;;;;;;;;-142.75;100.00;76399.03;4954257;28;19914;-65
2022/06/27 10:24:49;;;;;;;;;;;;;;;-142.75;100.00;76401.00;4954240;29;20285;-66
2022/06/27 10:27:28;;;;;;;;;;;;;;;-142.75;100.00;76397.06;4954085;29;19977;-66
2022/06/27 10:29:53;;;;;;;;;;;;;;;-142.75;100.00;76395.09;4953867;28;19915;-65
2022/06/27 10:32:37;;;;;;;;;;;;;;;-142.75;100.00;76397.06;4953985;29;19919;-65
2022/06/27 10:35:02;;;;;;;;;;;;;;;-142.75;100.00;76393.13;4954213;28;19915;-66
2022/06/27 10:37:27;;;;;;;;;;;;;;;-142.75;100.00;76393.13;4954019;29;19919;-66
2022/06/27 10:39:53;;;;;;;;;;;;;;;-142.75;100.00;76404.94;4953675;29;19921;-65
2022/06/27 10:42:37;;;;;;;;;;;;;;;-142.75;100.00;76406.91;4953855;29;19997;-64
2022/06/27 10:45:20;;;;;;;;;;;;;;;-142.75;100.00;76408.88;4954081;28;20010;-66
2022/06/27 10:47:46;;;;;;;;;;;;;;;-142.75;100.00;76416.75;4953568;29;19960;-65
2022/06/27 10:50:12;;;;;;;;;;;;;;;-142.75;100.00;76418.72;4953613;29;20013;-66
2022/06/27 10:52:37;;;;;;;;;;;;;;;-142.75;100.00;76412.81;4953635;29;19919;-65
2022/06/27 10:55:19;;;;;;;;;;;;;;;-142.75;100.00;76402.97;4953817;29;19914;-66
2022/06/27 10:57:44;;;;;;;;;;;;;;;-142.75;100.00;76393.13;4953605;29;19930;-65
2022/06/27 11:00:10;;;;;;;;;;;;;;;-142.75;100.00;76391.16;4953720;28;19915;-66
2022/06/27 11:02:36;;;;;;;;;;;;;;;-142.75;100.00;76385.25;4953605;29;20433;-66
2022/06/27 11:05:02;;;;;;;;;;;;;;;-142.75;100.00;76379.34;4953727;28;19926;-66
2022/06/27 11:07:28;;;;;;;;;;;;;;;-142.75;100.00;76373.44;4953570;28;19922;-66
2022/06/27 11:09:53;;;;;;;;;;;;;;;-142.75;100.00;76383.28;4953232;29;20379;-65
2022/06/27 11:12:19;;;;;;;;;;;;;;;-142.75;100.00;76385.25;4953424;28;20392;-66
2022/06/27 11:14:48;;;;;;;;;;;;;;;-142.75;100.00;76397.06;4953589;28;19937;-65
2022/06/27 11:17:29;;;;;;;;;;;;;;;-142.75;100.00;76402.97;4952362;28;20346;-66
2022/06/27 11:20:09;;;;;;;;;;;;;;;-142.75;100.00;76404.94;4953264;29;19968;-66
2022/06/27 11:22:35;;;;;;;;;;;;;;;-142.75;100.00;76402.97;4953209;29;20376;-66
2022/06/27 11:25:01;;;;;;;;;;;;;;;-142.75;100.00;76404.94;4953391;28;19985;-66
2022/06/27 11:27:42;;;;;;;;;;;;;;;-142.75;100.00;76397.06;4953287;28;19919;-65
2022/06/27 11:32:51;;;;;;;;;;;;;;;-142.75;100.00;76440.38;4953259;29;20342;-65
2022/06/27 11:35:17;;;;;;;;;;;;;;;-142.75;100.00;76444.31;4953171;29;19918;-65
2022/06/27 11:37:42;;;;;;;;;;;;;;;-142.75;100.00;76444.31;4953009;29;20394;-64
2022/06/27 11:40:07;;;;;;;;;;;;;;;-142.75;100.00;76456.13;4953004;29;19961;-66
2022/06/27 11:42:34;;;;;;;;;;;;;;;-142.75;100.00;76450.22;4952915;29;19960;-66
2022/06/27 11:45:08;;;;;;;;;;;;;;;-142.75;100.00;76462.03;4953053;29;19960;-65
2022/06/27 11:47:34;;;;;;;;;;;;;;;-142.75;100.00;76462.03;4949335;28;19915;-65
2022/06/27 11:50:06;;;;;;;;;;;;;;;-142.75;100.00;76462.03;4925829;28;20535;-65
2022/06/27 11:52:38;;;;;;;;;;;;;;;-142.75;100.00;76458.09;4914816;29;20385;-65
2022/06/27 11:55:08;;;;;;;;;;;;;;;-142.75;100.00;76452.19;4914770;29;19915;-66
2022/06/27 11:57:33;;;;;;;;;;;;;;;-142.75;100.00;76448.25;4914675;29;19926;-66
2022/06/27 12:00:00;;;;;;;;;;;;;;;-142.75;100.00;76444.31;4914573;29;19915;-64
2022/06/27 12:02:28;;;;;;;;;;;;;;;-142.75;100.00;76448.25;4915041;29;19915;-65
2022/06/27 12:05:16;;;;;;;;;;;;;;;-142.75;100.00;76450.22;4914520;29;19915;-65
2022/06/27 12:07:53;;;;;;;;;;;;;;;-142.75;100.00;76479.75;4914579;29;19923;-65
2022/06/27 12:10:34;;;;;;;;;;;;;;;-142.75;100.00;76489.59;4914434;29;20056;-65
2022/06/27 12:13:00;;;;;;;;;;;;;;;-142.75;100.00;76507.31;4914505;29;19923;-65
2022/06/27 12:15:26;;;;;;;;;;;;;;;-142.75;100.00;76527.00;4913251;29;19923;-65
2022/06/27 12:17:55;;;;;;;;;;;;;;;-142.75;100.00;76552.56;4914026;29;19923;-63
2022/06/27 12:20:20;;;;;;;;;;;;;;;-142.75;100.00;76574.22;4914384;29;19915;-65
2022/06/27 12:22:46;;;;;;;;;;;;;;;-142.75;100.00;76603.75;4914384;29;19922;-66